createdAt,value
2018-09-01T00:02:15.931Z,12.90
2018-09-01T00:04:45.018Z,11.80
2018-09-01T00:07:13.767Z,12.93
2018-09-01T00:09:42.495Z,12.70
2018-09-01T00:12:11.749Z,12.97
2018-09-01T00:14:40.800Z,13.47
2018-09-01T00:17:14.187Z,13.13
2018-09-01T00:19:43.181Z,13.60
2018-09-01T00:22:12.129Z,13.23
2018-09-01T00:24:41.157Z,14.73
2018-09-01T00:27:10.140Z,12.90
2018-09-01T00:29:39.258Z,14.00
2018-09-01T00:32:08.437Z,12.90
2018-09-01T00:34:37.343Z,13.00
2018-09-01T00:37:06.040Z,13.57
2018-09-01T00:39:38.955Z,12.50
2018-09-01T00:42:07.839Z,12.93
2018-09-01T00:44:36.692Z,13.70
2018-09-01T00:47:05.467Z,13.10
2018-09-01T00:49:34.460Z,12.97
2018-09-01T00:52:03.634Z,12.83
2018-09-01T00:54:32.679Z,13.07
2018-09-01T00:57:01.523Z,13.57
2018-09-01T00:59:30.458Z,13.20
2018-09-01T01:01:59.402Z,13.13
2018-09-01T01:04:28.150Z,13.53
2018-09-01T01:06:56.933Z,13.50
2018-09-01T01:09:25.660Z,14.33
2018-09-01T01:11:54.614Z,13.33
2018-09-01T01:14:23.289Z,14.10
2018-09-01T01:16:52.178Z,13.67
2018-09-01T01:19:21.015Z,13.40
2018-09-01T01:21:50.155Z,13.27
2018-09-01T01:24:19.119Z,14.03
2018-09-01T01:26:52.288Z,13.67
2018-09-01T01:29:20.990Z,12.80
2018-09-01T01:31:49.947Z,13.93
2018-09-01T01:34:18.981Z,12.40
2018-09-01T01:36:47.940Z,13.10
2018-09-01T01:39:16.889Z,13.23
2018-09-01T01:41:46.179Z,14.30
2018-09-01T01:44:15.366Z,12.57
2018-09-01T01:46:44.527Z,13.80
2018-09-01T01:49:13.283Z,12.83
2018-09-01T01:51:42.157Z,13.17
2018-09-01T01:54:11.090Z,12.17
2018-09-01T01:56:40.184Z,13.17
2018-09-01T01:59:09.113Z,13.70
2018-09-01T02:01:38.051Z,14.27
2018-09-01T02:04:07.014Z,13.20
2018-09-01T02:06:35.918Z,12.93
2018-09-01T02:09:05.720Z,14.37
2018-09-01T02:11:34.630Z,13.60
2018-09-01T02:14:03.703Z,13.10
2018-09-01T02:16:32.713Z,14.27
2018-09-01T02:19:01.686Z,13.17
2018-09-01T02:21:30.621Z,13.90
2018-09-01T02:23:59.374Z,13.40
2018-09-01T02:26:28.243Z,13.87
2018-09-01T02:28:56.952Z,13.90
2018-09-01T02:31:25.786Z,13.60
2018-09-01T02:33:54.734Z,14.37
2018-09-01T02:36:23.439Z,14.23
2018-09-01T02:38:52.334Z,14.40
2018-09-01T02:41:21.002Z,13.57
2018-09-01T02:43:49.814Z,13.67
2018-09-01T02:46:18.827Z,15.03
2018-09-01T02:48:48.007Z,19.10
2018-09-01T02:51:16.838Z,13.90
2018-09-01T02:53:46.213Z,17.47
2018-09-01T02:56:15.527Z,14.37
2018-09-01T02:58:44.330Z,14.93
2018-09-01T03:01:18.394Z,14.70
2018-09-01T03:03:47.477Z,14.47
2018-09-01T03:06:16.317Z,15.17
2018-09-01T03:08:45.017Z,14.27
2018-09-01T03:11:14.071Z,14.57
2018-09-01T03:13:42.893Z,13.23
2018-09-01T03:16:11.898Z,13.67
2018-09-01T03:18:40.951Z,13.73
2018-09-01T03:21:09.992Z,13.87
2018-09-01T03:23:39.140Z,14.03
2018-09-01T03:26:08.218Z,13.30
2018-09-01T03:28:37.128Z,12.90
2018-09-01T03:31:06.022Z,15.63
2018-09-01T03:33:35.213Z,13.93
2018-09-01T03:36:03.872Z,14.03
2018-09-01T03:38:32.865Z,13.97
2018-09-01T03:41:01.723Z,14.40
2018-09-01T03:43:30.738Z,13.70
2018-09-01T03:46:00.760Z,12.93
2018-09-01T03:48:29.601Z,17.27
2018-09-01T03:50:58.587Z,14.73
2018-09-01T03:53:27.581Z,13.60
2018-09-01T03:55:56.581Z,14.63
2018-09-01T03:58:25.662Z,15.57
2018-09-01T04:00:54.799Z,13.70
2018-09-01T04:03:23.759Z,15.63
2018-09-01T04:05:52.478Z,14.30
2018-09-01T04:08:21.281Z,16.40
2018-09-01T04:10:50.581Z,13.87
2018-09-01T04:13:19.660Z,13.83
2018-09-01T04:15:48.719Z,14.47
2018-09-01T04:18:17.644Z,14.23
2018-09-01T04:20:46.355Z,16.73
2018-09-01T04:23:15.451Z,14.27
2018-09-01T04:25:44.383Z,14.83
2018-09-01T04:28:13.316Z,14.90
2018-09-01T04:30:42.284Z,17.17
2018-09-01T04:33:11.414Z,15.63
2018-09-01T04:35:40.060Z,16.37
2018-09-01T04:38:08.970Z,17.67
2018-09-01T04:40:37.789Z,16.00
2018-09-01T04:43:07.522Z,16.13
2018-09-01T04:45:36.420Z,16.47
2018-09-01T04:48:05.856Z,17.87
2018-09-01T04:50:34.891Z,15.63
2018-09-01T04:53:03.750Z,16.50
2018-09-01T04:55:32.762Z,17.73
2018-09-01T04:58:01.617Z,18.43
2018-09-01T05:00:30.560Z,18.27
2018-09-01T05:02:59.320Z,16.10
2018-09-01T05:05:28.140Z,15.90
2018-09-01T05:07:56.850Z,13.77
2018-09-01T05:10:25.774Z,15.30
2018-09-01T05:12:55.128Z,13.83
2018-09-01T05:15:24.169Z,15.53
2018-09-01T05:17:53.365Z,15.17
2018-09-01T05:20:22.315Z,16.53
2018-09-01T05:22:51.196Z,16.20
2018-09-01T05:25:20.213Z,16.33
2018-09-01T05:27:49.126Z,16.13
2018-09-01T05:30:18.121Z,16.07
2018-09-01T05:32:46.898Z,16.40
2018-09-01T05:35:15.795Z,17.57
2018-09-01T05:37:44.610Z,15.20
2018-09-01T05:40:13.489Z,15.90
2018-09-01T05:42:42.362Z,15.90
2018-09-01T05:45:11.544Z,17.37
2018-09-01T05:47:40.462Z,16.23
2018-09-01T05:50:09.604Z,16.43
2018-09-01T05:52:38.515Z,15.87
2018-09-01T05:55:07.333Z,16.23
2018-09-01T05:57:36.292Z,15.83
2018-09-01T06:00:05.997Z,15.37
2018-09-01T06:02:34.778Z,17.60
2018-09-01T06:05:03.640Z,17.87
2018-09-01T06:07:32.562Z,17.80
2018-09-01T06:10:01.500Z,18.60
2018-09-01T06:12:30.455Z,16.10
2018-09-01T06:14:59.619Z,16.97
2018-09-01T06:17:28.699Z,17.70
2018-09-01T06:19:57.470Z,15.83
2018-09-01T06:22:26.634Z,17.63
2018-09-01T06:24:55.844Z,16.73
2018-09-01T06:27:27.943Z,16.57
2018-09-01T06:29:57.022Z,16.60
2018-09-01T06:32:26.221Z,15.53
2018-09-01T06:34:54.830Z,15.87
2018-09-01T06:37:23.744Z,18.00
2018-09-01T06:39:52.750Z,17.90
2018-09-01T06:42:21.882Z,16.07
2018-09-01T06:44:50.818Z,16.30
2018-09-01T06:47:19.719Z,17.97
2018-09-01T06:49:49.148Z,19.70
2018-09-01T06:52:17.960Z,18.43
2018-09-01T06:54:46.696Z,20.23
2018-09-01T06:57:15.406Z,19.50
2018-09-01T06:59:44.268Z,19.37
2018-09-01T07:02:13.490Z,18.73
2018-09-01T07:04:42.626Z,17.20
2018-09-01T07:07:11.534Z,17.60
2018-09-01T07:09:40.251Z,18.30
2018-09-01T07:12:09.268Z,16.97
2018-09-01T07:14:38.085Z,16.33
2018-09-01T07:17:06.934Z,15.63
2018-09-01T07:19:35.597Z,15.93
2018-09-01T07:22:04.936Z,15.40
2018-09-01T07:24:34.371Z,15.80
2018-09-01T07:27:03.619Z,17.90
2018-09-01T07:29:32.812Z,14.00
2018-09-01T07:32:01.644Z,14.17
2018-09-01T07:34:30.647Z,14.73
2018-09-01T07:36:59.445Z,13.37
2018-09-01T07:39:28.336Z,14.43
2018-09-01T07:41:57.172Z,16.23
2018-09-01T07:44:25.919Z,12.83
2018-09-01T07:46:54.725Z,13.27
2018-09-01T07:49:23.558Z,13.33
2018-09-01T07:51:52.476Z,13.10
2018-09-01T07:54:21.131Z,13.13
2018-09-01T07:56:50.169Z,13.07
2018-09-01T07:59:19.107Z,17.77
2018-09-01T08:01:48.306Z,17.85
2018-09-01T08:04:17.328Z,12.37
2018-09-01T08:06:46.246Z,15.32
2018-09-01T08:09:14.962Z,13.55
2018-09-01T08:11:43.655Z,15.60
2018-09-01T08:14:12.514Z,16.15
2018-09-01T08:16:41.578Z,12.90
2018-09-01T08:19:10.853Z,13.03
2018-09-01T08:21:40.194Z,12.03
2018-09-01T08:24:09.031Z,14.23
2018-09-01T08:26:38.000Z,11.80
2018-09-01T08:29:07.108Z,13.60
2018-09-01T08:31:36.179Z,11.93
2018-09-01T08:34:05.259Z,10.40
2018-09-01T08:36:33.968Z,11.78
2018-09-01T08:39:02.614Z,11.73
2018-09-01T08:41:31.697Z,11.33
2018-09-01T08:44:00.527Z,11.95
2018-09-01T08:46:29.626Z,12.28
2018-09-01T08:48:58.683Z,11.05
2018-09-01T08:51:27.729Z,11.57
2018-09-01T08:53:56.565Z,12.00
2018-09-01T08:56:25.647Z,10.95
2018-09-01T08:58:54.578Z,11.18
2018-09-01T09:01:23.478Z,11.73
2018-09-01T09:03:52.441Z,11.38
2018-09-01T09:06:21.123Z,10.65
2018-09-01T09:08:49.911Z,11.08
2018-09-01T09:11:19.118Z,10.23
2018-09-01T09:13:47.971Z,9.90
2018-09-01T09:16:16.948Z,9.53
2018-09-01T09:18:46.028Z,9.28
2018-09-01T09:21:14.741Z,10.65
2018-09-01T09:23:43.823Z,10.53
2018-09-01T09:26:12.640Z,11.50
2018-09-01T09:28:41.892Z,9.93
2018-09-01T09:31:11.322Z,10.03
2018-09-01T09:33:40.082Z,9.98
2018-09-01T09:36:08.774Z,9.98
2018-09-01T09:38:37.495Z,10.65
2018-09-01T09:41:07.048Z,10.10
2018-09-01T09:43:36.282Z,9.85
2018-09-01T09:46:05.135Z,10.25
2018-09-01T09:48:34.355Z,12.35
2018-09-01T09:51:03.539Z,9.83
2018-09-01T09:53:32.306Z,10.98
2018-09-01T09:56:01.159Z,9.35
2018-09-01T09:58:30.540Z,9.45
2018-09-01T10:01:03.547Z,9.48
2018-09-01T10:03:32.677Z,9.78
2018-09-01T10:06:02.104Z,9.18
2018-09-01T10:08:30.712Z,10.40
2018-09-01T10:10:59.618Z,9.33
2018-09-01T10:13:28.676Z,9.68
2018-09-01T10:15:57.575Z,10.15
2018-09-01T10:18:26.670Z,12.70
2018-09-01T10:20:55.618Z,10.15
2018-09-01T10:23:24.545Z,11.55
2018-09-01T10:25:53.752Z,9.13
2018-09-01T10:28:22.928Z,9.83
2018-09-01T10:30:51.954Z,10.10
2018-09-01T10:33:20.860Z,9.73
2018-09-01T10:35:49.674Z,9.53
2018-09-01T10:38:18.525Z,10.03
2018-09-01T10:40:47.834Z,9.73
2018-09-01T10:43:16.834Z,10.30
2018-09-01T10:45:46.007Z,11.05
2018-09-01T10:48:14.787Z,10.70
2018-09-01T10:50:43.586Z,9.90
2018-09-01T10:53:12.626Z,9.88
2018-09-01T10:55:41.679Z,8.95
2018-09-01T10:58:10.591Z,9.95
2018-09-01T11:00:39.619Z,10.20
2018-09-01T11:03:08.354Z,9.18
2018-09-01T11:05:37.231Z,9.63
2018-09-01T11:08:06.255Z,10.30
2018-09-01T11:10:35.487Z,9.80
2018-09-01T11:13:04.641Z,10.43
2018-09-01T11:15:33.559Z,10.03
2018-09-01T11:18:02.532Z,10.20
2018-09-01T11:20:31.780Z,10.30
2018-09-01T11:23:00.621Z,9.23
2018-09-01T11:25:29.442Z,9.48
2018-09-01T11:27:58.389Z,9.40
2018-09-01T11:30:27.407Z,8.68
2018-09-01T11:32:56.210Z,9.43
2018-09-01T11:35:24.942Z,10.35
2018-09-01T11:37:53.738Z,9.95
2018-09-01T11:40:22.635Z,9.13
2018-09-01T11:42:51.994Z,9.23
2018-09-01T11:45:20.976Z,9.13
2018-09-01T11:47:50.299Z,9.18
2018-09-01T11:50:19.381Z,9.08
2018-09-01T11:52:48.573Z,9.28
2018-09-01T11:55:17.538Z,9.28
2018-09-01T11:57:46.551Z,9.55
2018-09-01T12:00:15.518Z,9.28
2018-09-01T12:02:44.563Z,11.05
2018-09-01T12:05:13.178Z,10.93
2018-09-01T12:07:41.920Z,9.30
2018-09-01T12:10:10.739Z,10.60
2018-09-01T12:12:39.615Z,9.25
2018-09-01T12:15:08.728Z,10.00
2018-09-01T12:17:37.555Z,10.82
2018-09-01T12:20:06.806Z,11.53
2018-09-01T12:22:36.111Z,10.10
2018-09-01T12:25:05.271Z,10.30
2018-09-01T12:27:34.630Z,10.23
2018-09-01T12:30:03.539Z,9.88
2018-09-01T12:32:32.290Z,10.10
2018-09-01T12:35:01.086Z,10.63
2018-09-01T12:37:29.802Z,10.28
2018-09-01T12:39:58.702Z,9.63
2018-09-01T12:42:27.626Z,11.00
2018-09-01T12:44:56.583Z,9.80
2018-09-01T12:47:25.599Z,10.80
2018-09-01T12:49:54.635Z,10.93
2018-09-01T12:52:23.478Z,10.78
2018-09-01T12:54:52.448Z,11.38
2018-09-01T12:57:21.342Z,11.97
2018-09-01T12:59:50.262Z,11.05
2018-09-01T13:02:20.086Z,10.80
2018-09-01T13:04:49.130Z,10.08
2018-09-01T13:07:17.915Z,11.05
2018-09-01T13:09:47.022Z,10.58
2018-09-01T13:12:15.946Z,10.88
2018-09-01T13:14:44.811Z,10.72
2018-09-01T13:17:13.827Z,10.50
2018-09-01T13:19:43.664Z,10.58
2018-09-01T13:22:12.479Z,10.13
2018-09-01T13:24:41.402Z,11.05
2018-09-01T13:27:10.357Z,10.45
2018-09-01T13:29:39.100Z,10.65
2018-09-01T13:32:08.248Z,10.13
2018-09-01T13:34:37.108Z,10.72
2018-09-01T13:37:06.171Z,11.25
2018-09-01T13:39:34.978Z,10.18
2018-09-01T13:42:04.190Z,11.97
2018-09-01T13:44:33.173Z,11.33
2018-09-01T13:47:01.936Z,11.18
2018-09-01T13:49:31.381Z,12.00
2018-09-01T13:52:00.226Z,10.30
2018-09-01T13:54:29.274Z,11.12
2018-09-01T13:56:58.486Z,12.37
2018-09-01T13:59:27.368Z,10.68
2018-09-01T14:01:56.085Z,11.20
2018-09-01T14:04:24.805Z,10.05
2018-09-01T14:06:53.909Z,11.05
2018-09-01T14:09:22.856Z,11.40
2018-09-01T14:11:51.879Z,11.20
2018-09-01T14:14:20.800Z,11.28
2018-09-01T14:16:50.442Z,11.55
2018-09-01T14:19:19.389Z,10.53
2018-09-01T14:21:48.221Z,10.68
2018-09-01T14:24:17.516Z,10.95
2018-09-01T14:26:46.584Z,10.18
2018-09-01T14:29:15.332Z,10.93
2018-09-01T14:31:44.476Z,11.30
2018-09-01T14:34:13.280Z,11.05
2018-09-01T14:36:41.930Z,10.45
2018-09-01T14:39:12.200Z,10.95
2018-09-01T14:41:41.360Z,11.10
2018-09-01T14:44:11.133Z,11.15
2018-09-01T14:46:40.406Z,10.32
2018-09-01T14:49:09.475Z,10.85
2018-09-01T14:51:38.354Z,10.90
2018-09-01T14:54:07.829Z,11.65
2018-09-01T14:56:36.950Z,10.50
2018-09-01T14:59:05.622Z,11.10
2018-09-01T15:01:34.866Z,10.48
2018-09-01T15:04:03.716Z,11.10
2018-09-01T15:06:32.551Z,10.68
2018-09-01T15:09:01.876Z,9.63
2018-09-01T15:11:30.614Z,11.08
2018-09-01T15:13:59.715Z,11.30
2018-09-01T15:16:28.661Z,10.68
2018-09-01T15:18:57.426Z,11.50
2018-09-01T15:21:26.582Z,10.68
2018-09-01T15:23:55.790Z,10.20
2018-09-01T15:26:24.542Z,11.03
2018-09-01T15:28:53.587Z,10.70
2018-09-01T15:31:22.338Z,10.45
2018-09-01T15:33:50.960Z,10.60
2018-09-01T15:36:20.280Z,10.05
2018-09-01T15:38:49.450Z,10.53
2018-09-01T15:41:18.303Z,10.82
2018-09-01T15:43:47.874Z,10.65
2018-09-01T15:46:17.078Z,10.32
2018-09-01T15:48:46.000Z,9.58
2018-09-01T15:51:15.458Z,11.00
2018-09-01T15:53:44.840Z,9.20
2018-09-01T15:56:14.100Z,9.75
2018-09-01T15:58:43.375Z,9.20
2018-09-01T16:01:12.067Z,9.20
2018-09-01T16:03:40.763Z,10.13
2018-09-01T16:06:09.760Z,9.83
2018-09-01T16:08:38.511Z,9.03
2018-09-01T16:11:07.602Z,9.03
2018-09-01T16:13:36.658Z,10.05
2018-09-01T16:16:05.698Z,9.38
2018-09-01T16:18:34.777Z,9.75
2018-09-01T16:21:04.013Z,9.63
2018-09-01T16:23:32.943Z,9.90
2018-09-01T16:26:01.989Z,8.95
2018-09-01T16:28:30.799Z,10.00
2018-09-01T16:30:59.652Z,10.18
2018-09-01T16:33:28.296Z,9.48
2018-09-01T16:35:57.448Z,9.78
2018-09-01T16:38:26.090Z,9.83
2018-09-01T16:40:55.309Z,10.60
2018-09-01T16:43:24.438Z,10.93
2018-09-01T16:45:53.326Z,9.68
2018-09-01T16:48:22.217Z,12.40
2018-09-01T16:50:51.526Z,10.65
2018-09-01T16:53:20.260Z,10.50
2018-09-01T16:55:49.203Z,11.35
2018-09-01T16:58:17.949Z,11.83
2018-09-01T17:00:46.729Z,10.35
2018-09-01T17:03:15.376Z,10.85
2018-09-01T17:05:44.458Z,9.83
2018-09-01T17:08:13.459Z,11.03
2018-09-01T17:10:42.858Z,10.58
2018-09-01T17:13:11.846Z,10.78
2018-09-01T17:15:40.610Z,11.80
2018-09-01T17:18:10.272Z,10.80
2018-09-01T17:20:39.191Z,10.25
2018-09-01T17:23:07.978Z,10.35
2018-09-01T17:25:37.375Z,10.93
2018-09-01T17:28:06.306Z,12.33
2018-09-01T17:30:35.054Z,10.58
2018-09-01T17:33:03.835Z,11.53
2018-09-01T17:35:32.488Z,13.32
2018-09-01T17:38:01.794Z,12.63
2018-09-01T17:40:30.806Z,12.60
2018-09-01T17:42:59.799Z,11.12
2018-09-01T17:45:29.086Z,12.30
2018-09-01T17:47:58.270Z,13.05
2018-09-01T17:50:27.169Z,13.35
2018-09-01T17:52:56.615Z,12.85
2018-09-01T17:55:25.616Z,12.78
2018-09-01T17:57:54.206Z,13.10
2018-09-01T18:00:23.062Z,13.53
2018-09-01T18:02:51.666Z,11.78
2018-09-01T18:05:21.038Z,14.40
2018-09-01T18:07:50.131Z,14.07
2018-09-01T18:10:19.058Z,14.40
2018-09-01T18:12:48.147Z,17.30
2018-09-01T18:15:17.453Z,15.98
2018-09-01T18:17:46.749Z,15.32
2018-09-01T18:20:15.820Z,15.72
2018-09-01T18:22:44.846Z,16.77
2018-09-01T18:25:13.951Z,19.42
2018-09-01T18:27:42.658Z,20.40
2018-09-01T18:30:11.762Z,14.87
2018-09-01T18:32:40.449Z,16.23
2018-09-01T18:35:10.788Z,16.62
2018-09-01T18:37:39.779Z,16.55
2018-09-01T18:40:08.895Z,16.37
2018-09-01T18:42:38.183Z,16.40
2018-09-01T18:45:08.005Z,17.70
2018-09-01T18:47:36.898Z,16.55
2018-09-01T18:50:06.130Z,17.83
2018-09-01T18:52:35.004Z,17.10
2018-09-01T18:55:04.005Z,16.17
2018-09-01T18:57:33.101Z,18.63
2018-09-01T19:00:01.818Z,24.53
2018-09-01T19:02:30.721Z,32.70
2018-09-01T19:04:59.933Z,28.30
2018-09-01T19:07:28.957Z,39.27
2018-09-01T19:09:57.743Z,27.80
2018-09-01T19:12:27.282Z,24.90
2018-09-01T19:14:56.268Z,22.67
2018-09-01T19:17:25.395Z,19.07
2018-09-01T19:19:54.539Z,19.97
2018-09-01T19:22:23.513Z,17.20
2018-09-01T19:24:52.523Z,18.00
2018-09-01T19:27:21.742Z,16.53
2018-09-01T19:29:50.462Z,16.43
2018-09-01T19:32:19.440Z,16.23
2018-09-01T19:34:48.755Z,16.83
2018-09-01T19:37:17.851Z,16.80
2018-09-01T19:39:47.003Z,18.27
2018-09-01T19:42:15.973Z,17.80
2018-09-01T19:44:44.740Z,18.27
2018-09-01T19:47:13.886Z,17.83
2018-09-01T19:49:42.811Z,16.53
2018-09-01T19:52:11.805Z,18.00
2018-09-01T19:54:40.500Z,17.43
2018-09-01T19:57:09.695Z,16.47
2018-09-01T19:59:38.330Z,15.43
2018-09-01T20:02:07.216Z,16.40
2018-09-01T20:04:36.584Z,16.13
2018-09-01T20:07:05.462Z,16.77
2018-09-01T20:09:34.575Z,16.40
2018-09-01T20:12:03.745Z,14.80
2018-09-01T20:14:32.875Z,14.90
2018-09-01T20:17:01.673Z,14.50
2018-09-01T20:19:30.710Z,14.60
2018-09-01T20:21:59.498Z,14.80
2018-09-01T20:24:28.322Z,15.27
2018-09-01T20:26:57.459Z,14.57
2018-09-01T20:29:26.192Z,14.60
2018-09-01T20:31:55.133Z,14.20
2018-09-01T20:34:24.288Z,14.33
2018-09-01T20:36:55.951Z,13.37
2018-09-01T20:39:24.929Z,13.63
2018-09-01T20:41:54.214Z,13.60
2018-09-01T20:44:23.409Z,12.57
2018-09-01T20:46:52.423Z,12.50
2018-09-01T20:49:21.278Z,12.43
2018-09-01T20:51:50.355Z,12.93
2018-09-01T20:54:19.502Z,12.30
2018-09-01T20:56:48.387Z,13.57
2018-09-01T20:59:16.986Z,14.57
2018-09-01T21:01:46.175Z,13.93
2018-09-01T21:04:14.899Z,13.87
2018-09-01T21:06:43.714Z,13.27
2018-09-01T21:09:12.960Z,15.23
2018-09-01T21:11:43.119Z,14.07
2018-09-01T21:14:12.493Z,13.00
2018-09-01T21:16:41.768Z,12.70
2018-09-01T21:19:10.757Z,13.37
2018-09-01T21:21:40.121Z,13.33
2018-09-01T21:24:09.055Z,14.13
2018-09-01T21:26:37.830Z,13.57
2018-09-01T21:29:06.955Z,13.93
2018-09-01T21:31:35.688Z,12.63
2018-09-01T21:34:04.577Z,15.20
2018-09-01T21:36:34.143Z,13.87
2018-09-01T21:39:02.791Z,13.10
2018-09-01T21:41:31.424Z,13.93
2018-09-01T21:44:00.526Z,13.53
2018-09-01T21:46:29.594Z,13.13
2018-09-01T21:48:58.512Z,14.40
2018-09-01T21:51:27.311Z,13.10
2018-09-01T21:53:56.240Z,13.83
2018-09-01T21:56:25.532Z,12.97
2018-09-01T21:58:54.426Z,13.93
2018-09-01T22:01:28.504Z,13.43
2018-09-01T22:03:57.374Z,14.30
2018-09-01T22:06:26.259Z,12.70
2018-09-01T22:08:55.575Z,12.33
2018-09-01T22:11:24.216Z,13.83
2018-09-01T22:13:53.096Z,12.50
2018-09-01T22:16:22.047Z,11.77
2018-09-01T22:18:51.129Z,11.93
2018-09-01T22:21:19.889Z,12.37
2018-09-01T22:23:49.035Z,12.83
2018-09-01T22:26:17.747Z,13.13
2018-09-01T22:28:46.426Z,12.07
2018-09-01T22:31:15.489Z,12.03
2018-09-01T22:33:44.579Z,12.60
2018-09-01T22:36:13.302Z,12.77
2018-09-01T22:38:42.494Z,12.10
2018-09-01T22:41:11.863Z,12.97
2018-09-01T22:43:40.635Z,12.57
2018-09-01T22:46:09.475Z,11.70
2018-09-01T22:48:38.235Z,13.17
2018-09-01T22:51:07.073Z,12.27
2018-09-01T22:53:36.254Z,11.97
2018-09-01T22:56:05.116Z,12.23
2018-09-01T22:58:33.830Z,12.77
2018-09-01T23:01:02.810Z,13.67
2018-09-01T23:03:31.681Z,13.50
2018-09-01T23:06:00.752Z,13.03
2018-09-01T23:08:29.715Z,13.33
2018-09-01T23:10:58.795Z,12.77
2018-09-01T23:13:27.772Z,12.97
2018-09-01T23:15:57.083Z,12.07
2018-09-01T23:18:26.036Z,12.73
2018-09-01T23:20:55.092Z,13.00
2018-09-01T23:23:24.522Z,12.70
2018-09-01T23:25:53.114Z,13.63
2018-09-01T23:28:21.866Z,14.47
2018-09-01T23:30:50.826Z,12.80
2018-09-01T23:33:19.939Z,13.10
2018-09-01T23:35:49.019Z,13.37
2018-09-01T23:38:18.240Z,13.97
2018-09-01T23:40:46.909Z,12.00
2018-09-01T23:43:15.842Z,12.07
2018-09-01T23:45:44.999Z,12.17
2018-09-01T23:48:13.887Z,11.47
2018-09-01T23:50:42.979Z,12.47
2018-09-01T23:53:11.910Z,12.17
2018-09-01T23:55:40.747Z,12.70
2018-09-01T23:58:09.423Z,12.00
